Flight Track Log - Related Links

Times and Time Zones

All times are in EST time to prevent confusion due to time zone crossing. See the N825TD flight status page for this flight to view local times or setup timezone preferences in your user account.

Time Position Orientation Groundspeed Altitude Reporting Facility
EST Latitude Longitude Course Direction KTS km/h feet Rate Location/Type
Tue 14:17:30 24.6211 -81.7883 13° North 106 196 3.000  Level Miami Center
Tue 14:18:30 24.6508 -81.7781 17° North 106 196 4.100 1.000 Climbing Miami Center
Tue 14:19:30 24.6844 -81.7681 15° North 119 220 5.000 1.050 Climbing Miami Center
Tue 14:20:30 24.7183 -81.7558 18° North 125 232 6.200 1.200 Climbing Miami Center
Tue 14:21:00 24.7497 -81.7251 13° North  Level FlightAware Approximate
Tue 14:21:30 24.7436 -81.7475 17° North 111 206 7.400  Level Miami Center
Tue 14:22:00 24.7824 -81.7169 13° North  Level FlightAware Approximate
Tue 14:22:30 24.7753 -81.7442 North 106 196 8.000  Level Miami Center
Tue 14:23:30 24.8147 -81.7481 355° North 114 211 8.000  Level Miami Center
Tue 14:24:30 24.8544 -81.7475 North 129 238 8.000 -50 Level Miami Center
Tue 14:25:30 24.8961 -81.7467 North 141 261 7.900 -50 Descending Miami Center
Tue 14:26:30 24.9378 -81.7508 355° North 141 261 7.900  Level Miami Center
Tue 14:27:30 24.9797 -81.7500 North 141 261 7.900  Level Miami Center
Tue 14:28:30 25.0214 -81.7494 North 141 261 7.900  Level Miami Center
Tue 14:29:30 25.0611 -81.7511 358° North 141 261 7.900  Level Miami Center
Tue 14:30:30 25.1028 -81.7506 North 141 261 7.900  Level Miami Center
Tue 14:31:30 25.1444 -81.7522 358° North 141 261 7.900  Level Miami Center
Tue 14:32:30 25.1842 -81.7536 358° North 141 261 7.900  Level Miami Center
Tue 14:33:30 25.2239 -81.7531 North 141 261 7.900  Level Miami Center
Tue 14:34:30 25.2656 -81.7547 358° North 141 261 7.900  Level Miami Center
Tue 14:35:30 25.3053 -81.7564 358° North 141 261 7.900  Level Miami Center
Tue 14:36:30 25.3447 -81.7578 358° North 141 261 7.900  Level Miami Center
Tue 14:37:30 25.3867 -81.7572 North 141 261 7.900 -150 Level Miami Center
Tue 14:38:30 25.4283 -81.7567 North 141 261 7.600 -400 Descending Miami Center
Tue 14:39:30 25.4722 -81.7539 North 141 261 7.100 -500 Descending Miami Center
Tue 14:40:30 25.5161 -81.7511 North 147 272 6.600 -500 Descending Miami Center
Tue 14:41:30 25.5622 -81.7506 North 154 285 6.100 -550 Descending Miami Center
Tue 14:42:30 25.6083 -81.7456 North 159 295 5.500 -600 Descending Miami Center
Tue 14:43:30 25.6564 -81.7428 North 159 295 4.900 -550 Descending Miami Center
Tue 14:44:30 25.6981 -81.7422 North 159 295 4.400 -400 Descending Miami Center
Tue 14:45:30 25.7439 -81.7464 355° North 159 295 4.100 -200 Descending Miami Center
Tue 14:46:30 25.7856 -81.7503 355° North 159 295 4.000 -150 Descending Miami Center
Tue 14:47:30 25.8314 -81.7569 353° North 159 295 3.800 -300 Descending Miami Center
Tue 14:48:30 25.8750 -81.7586 358° North 153 283 3.400 -400 Descending Miami Center
Tue 14:49:30 25.9208 -81.7650 353° North 159 295 3.000 -400 Descending Miami Center
Tue 14:50:30 25.9647 -81.7622 North 159 295 2.600 -350 Descending Miami Center
Tue 14:51:30 26.0086 -81.7642 358° North 159 295 2.300 -300 Descending Miami Center
Tue 14:53:00 26.0654 -81.7687 340° North  Level Estimated
Tue 15:00:00 26.1500 -81.7667 340° North  Level FlightAware Approximate
Tue 15:01:00 26.1524 -81.7756 340° North  Level Estimated
Tue 15:02:00 26.1524 -81.7756 340° North  Level Estimated
Tue 15:03:00 26.1524 -81.7756 340° North  Level Estimated
Tue 15:04:00 26.1524 -81.7756 340° North  Level Estimated

Login

Don't have an account? Register now (free) for customized features, flight alerts, and more!